メインページ
METAR-TAF:

METAR-TAF

空港 :

ポワンタピートル国際空港

ポワンタピートル, グアドループ

緯度: 16-16N, 経度: 061-31W, 海抜: 11m

現時点の気象観測

当レポートは20分前の09:30(UTC)に作成
無風
気温 22°C
湿度 94%
気圧 1016 hPa
視程10km以上

METAR: TFFR 200930Z AUTO 00000KT 9999 ///TCU 22/21 Q1016 TEMPO 3000 SHRA FEW015CB BKN018TCU BECMG 12014KT

時間: 05:50 (09:50 UTC)

予報

当レポートは5時間50分前の04:00(UTC)に作成
予報は20日の 06時(UTC)から 21日の 06時(UTC)まで有効
の風 3kt
視程10km以上
高度2400ftの雲は散在している
20日の 10時(UTC)から 20日の 12時(UTC)まで徐々に
東/南東の風 14kt
確率 30% :
20日の 06時(UTC)から 21日の 06時(UTC)まで一時的に
視程: 3000m
高度1500ftの雲はほとんどない, 積乱雲.
高度1800ftの千切れ雲あり, 塔状積雲.
にわか雨

TAF: TFFR 200400Z 2006/2106 09003KT 9999 SCT024 BECMG 2010/2012 12014KT PROB30 TEMPO 2006/2106 3000 SHRA FEW015CB BKN018TCU

4,000以上の空港の気象観測と天気予報(METAR報とTAF報)

利用可能な観測所は地図上に黄色い丸と赤い丸で示す。

丸の上にカーソルを重ねると観測所名を参照できる。

次にクリックすると気象観測と天気予報を参照できる。

マップの切り替え:黒色「×」印の緑ボタンをクリックして拡大、「-」印の緑ボタンをクリックして縮小、緑色の三角印をクリックして隣りの地図に切り替え


METAR-TAF: